createdAt,value
2024-05-09T00:05:34.584Z,36.61
2024-05-09T00:45:34.033Z,36.6
2024-05-09T01:05:34.605Z,36.6
2024-05-09T01:25:34.294Z,36.6
2024-05-09T01:45:34.027Z,36.65
2024-05-09T02:05:34.356Z,36.65
2024-05-09T02:25:34.552Z,36.64
2024-05-09T04:25:34.295Z,36.59
2024-05-09T04:45:34.359Z,36.58
2024-05-09T05:05:34.443Z,36.57
2024-05-09T05:25:34.285Z,36.57
2024-05-09T05:45:34.291Z,36.57
2024-05-09T06:25:34.278Z,36.56
2024-05-09T06:45:34.289Z,36.56
2024-05-09T07:05:34.048Z,36.55
2024-05-09T07:25:34.259Z,36.55
2024-05-09T08:05:34.318Z,36.57
2024-05-09T08:25:34.215Z,36.55
2024-05-09T09:05:34.433Z,36.53
2024-05-09T09:25:34.187Z,36.53
2024-05-09T09:45:34.182Z,36.53
2024-05-09T10:05:34.245Z,36.56
2024-05-09T10:25:34.154Z,36.42
2024-05-09T10:45:34.176Z,36.38
2024-05-09T11:05:34.259Z,36.43
2024-05-09T11:25:34.129Z,36.39
2024-05-09T11:45:34.242Z,36.36
2024-05-09T12:25:34.078Z,36.26
2024-05-09T12:45:34.143Z,36.24
2024-05-09T13:05:34.165Z,36.23
2024-05-09T13:25:34.100Z,36.23
2024-05-09T13:45:34.164Z,36.25
2024-05-09T14:05:34.209Z,36.22
2024-05-09T14:25:35.183Z,36.2
2024-05-09T14:45:34.082Z,36.19
2024-05-09T15:05:33.985Z,36.18
2024-05-09T15:25:34.034Z,36.07
2024-05-09T15:45:34.218Z,36.06
2024-05-09T16:05:34.165Z,36.06
2024-05-09T16:25:33.943Z,36.06
2024-05-09T16:45:34.133Z,36.06
2024-05-09T17:05:34.265Z,36.06
2024-05-09T17:25:34.399Z,36.06
2024-05-09T17:45:33.937Z,36.06
2024-05-09T18:05:33.987Z,36.06
2024-05-09T18:25:33.914Z,36.06
2024-05-09T18:45:33.856Z,36.06
2024-05-09T19:05:34.222Z,36.06
2024-05-09T19:25:33.869Z,36.06
2024-05-09T20:05:34.145Z,36.06
2024-05-09T21:45:33.821Z,36.06
2024-05-09T22:05:34.126Z,36.06
